WJA747 CYXU-CYYC
Flight info
| Callsign | WJA747 |
|---|---|
| Flight time | 3h 45m |
| Altitude | 38000 |
| Route | HOCKE DCT GRB DCT GGULL DCT MOT DCT BEVEL DCT VESDO EBGAL7 |
| Aircraft | B737/M-SDE2E3FGHIRWXY/LB1 |
Departure
| Time | 2026-04-29 09:10 |
|---|---|
| Airport | London International Airport (CYXU) |
Arrival
| Time | 2026-04-29 12:55 |
|---|---|
| Airport | Calgary International Airport (CYYC) |
| Time | Latitude | Longitude | Altitude | Speed | Heading |
|---|---|---|---|---|---|
| 2026-04-29 08:46 | 43.02906 | -81.14829 | 907 ft | 0 kts | 259° |
| 2026-04-29 09:01 | 43.02909 | -81.14805 | 907 ft | 3 kts | 258° |
| 2026-04-29 09:02 | 43.02918 | -81.14776 | 907 ft | 4 kts | 209° |
| 2026-04-29 09:02 | 43.02939 | -81.14774 | 909 ft | 4 kts | 146° |
| 2026-04-29 09:02 | 43.02951 | -81.14787 | 910 ft | 2 kts | 139° |
| 2026-04-29 09:02 | 43.02952 | -81.14788 | 910 ft | 0 kts | 139° |
| 2026-04-29 09:05 | 43.02951 | -81.14786 | 910 ft | 0 kts | 139° |
| 2026-04-29 09:05 | 43.02949 | -81.14784 | 910 ft | 0 kts | 139° |
| 2026-04-29 09:06 | 43.02947 | -81.14782 | 909 ft | 0 kts | 139° |
| 2026-04-29 09:06 | 43.02936 | -81.14769 | 912 ft | 6 kts | 139° |
| 2026-04-29 09:06 | 43.02894 | -81.14717 | 907 ft | 11 kts | 140° |
| 2026-04-29 09:06 | 43.02819 | -81.14627 | 907 ft | 18 kts | 138° |
| 2026-04-29 09:07 | 43.02716 | -81.14504 | 908 ft | 20 kts | 139° |
| 2026-04-29 09:07 | 43.02614 | -81.14381 | 907 ft | 19 kts | 138° |
| 2026-04-29 09:07 | 43.02514 | -81.14262 | 907 ft | 19 kts | 139° |
| 2026-04-29 09:07 | 43.02418 | -81.14147 | 907 ft | 18 kts | 139° |
| 2026-04-29 09:08 | 43.02327 | -81.14037 | 907 ft | 16 kts | 139° |
| 2026-04-29 09:08 | 43.02334 | -81.13936 | 907 ft | 9 kts | 48° |
| 2026-04-29 09:08 | 43.02345 | -81.13919 | 907 ft | 0 kts | 48° |
| 2026-04-29 09:09 | 43.02362 | -81.13892 | 906 ft | 8 kts | 48° |
| 2026-04-29 09:09 | 43.02419 | -81.13843 | 906 ft | 11 kts | 357° |
| 2026-04-29 09:09 | 43.02450 | -81.13867 | 906 ft | 8 kts | 319° |
| 2026-04-29 09:10 | 43.02662 | -81.14121 | 909 ft | 77 kts | 319° |
| 2026-04-29 09:10 | 43.03231 | -81.14804 | 907 ft | 139 kts | 318° |
| 2026-04-29 09:10 | 43.04069 | -81.15828 | 1054 ft | 177 kts | 319° |
| 2026-04-29 09:10 | 43.04997 | -81.16975 | 1822 ft | 180 kts | 320° |
| 2026-04-29 09:11 | 43.05941 | -81.18032 | 2820 ft | 169 kts | 327° |
| 2026-04-29 09:11 | 43.06919 | -81.19052 | 3387 ft | 190 kts | 323° |
| 2026-04-29 09:11 | 43.08033 | -81.20276 | 3665 ft | 220 kts | 322° |
| 2026-04-29 09:11 | 43.09267 | -81.21698 | 4035 ft | 241 kts | 319° |
| 2026-04-29 09:12 | 43.10529 | -81.23268 | 4704 ft | 248 kts | 315° |
| 2026-04-29 09:12 | 43.11765 | -81.24953 | 5434 ft | 252 kts | 313° |
| 2026-04-29 09:12 | 43.12999 | -81.26667 | 6248 ft | 253 kts | 313° |
| 2026-04-29 09:12 | 43.14235 | -81.28389 | 7005 ft | 254 kts | 311° |
| 2026-04-29 09:13 | 43.15459 | -81.30151 | 7745 ft | 255 kts | 309° |
| 2026-04-29 09:13 | 43.16655 | -81.31960 | 8466 ft | 257 kts | 308° |
| 2026-04-29 09:13 | 43.17775 | -81.33866 | 9177 ft | 257 kts | 294° |
| 2026-04-29 09:13 | 43.18238 | -81.36255 | 9647 ft | 267 kts | 272° |
| 2026-04-29 09:14 | 43.18387 | -81.38786 | 10337 ft | 275 kts | 271° |
| 2026-04-29 09:14 | 43.18524 | -81.41522 | 10570 ft | 301 kts | 271° |
| 2026-04-29 09:14 | 43.18675 | -81.44477 | 10986 ft | 318 kts | 271° |
| 2026-04-29 09:14 | 43.18843 | -81.47521 | 11782 ft | 321 kts | 271° |
| 2026-04-29 09:15 | 43.19023 | -81.50569 | 12709 ft | 321 kts | 271° |
| 2026-04-29 09:15 | 43.19209 | -81.53620 | 13632 ft | 322 kts | 271° |
| 2026-04-29 09:15 | 43.19400 | -81.56691 | 14475 ft | 324 kts | 271° |
| 2026-04-29 09:15 | 43.19594 | -81.59792 | 15235 ft | 329 kts | 271° |
| 2026-04-29 09:16 | 43.19792 | -81.62932 | 16000 ft | 333 kts | 271° |
| 2026-04-29 09:16 | 43.19993 | -81.66111 | 16800 ft | 337 kts | 271° |
| 2026-04-29 09:16 | 43.20196 | -81.69330 | 17552 ft | 342 kts | 271° |
| 2026-04-29 09:16 | 43.20403 | -81.72605 | 18306 ft | 346 kts | 271° |
| 2026-04-29 09:17 | 43.20611 | -81.75911 | 18988 ft | 349 kts | 271° |
| 2026-04-29 09:17 | 43.20820 | -81.79231 | 19735 ft | 350 kts | 271° |
| 2026-04-29 09:17 | 43.21028 | -81.82561 | 20486 ft | 351 kts | 271° |
| 2026-04-29 09:17 | 43.21237 | -81.85903 | 21205 ft | 353 kts | 271° |
| 2026-04-29 09:18 | 43.21445 | -81.89273 | 21902 ft | 356 kts | 271° |
| 2026-04-29 09:18 | 43.21654 | -81.92661 | 22582 ft | 358 kts | 271° |
| 2026-04-29 09:18 | 43.21863 | -81.96072 | 23257 ft | 360 kts | 272° |
| 2026-04-29 09:18 | 43.22072 | -81.99506 | 23867 ft | 362 kts | 272° |
| 2026-04-29 09:19 | 43.22281 | -82.02957 | 24451 ft | 363 kts | 272° |
| 2026-04-29 09:19 | 43.22490 | -82.06407 | 25063 ft | 363 kts | 271° |
| 2026-04-29 09:19 | 43.22695 | -82.09812 | 25648 ft | 364 kts | 271° |
| 2026-04-29 09:19 | 43.22901 | -82.13269 | 26215 ft | 365 kts | 271° |
| 2026-04-29 09:20 | 43.23108 | -82.16746 | 26764 ft | 366 kts | 271° |
| 2026-04-29 09:20 | 43.23313 | -82.20227 | 27298 ft | 367 kts | 271° |
| 2026-04-29 09:20 | 43.23519 | -82.23717 | 27818 ft | 368 kts | 271° |
| 2026-04-29 09:20 | 43.23724 | -82.27223 | 28329 ft | 369 kts | 271° |
| 2026-04-29 09:21 | 43.23928 | -82.30740 | 28829 ft | 370 kts | 271° |
| 2026-04-29 09:21 | 43.24132 | -82.34266 | 29317 ft | 372 kts | 271° |
| 2026-04-29 09:21 | 43.24336 | -82.37802 | 29784 ft | 373 kts | 271° |
| 2026-04-29 09:21 | 43.24540 | -82.41356 | 30208 ft | 374 kts | 271° |
| 2026-04-29 09:22 | 43.24742 | -82.44921 | 30560 ft | 376 kts | 270° |
| 2026-04-29 09:22 | 43.24945 | -82.48487 | 31016 ft | 374 kts | 270° |
| 2026-04-29 09:22 | 43.25145 | -82.52026 | 31538 ft | 371 kts | 270° |
| 2026-04-29 09:22 | 43.25343 | -82.55546 | 32026 ft | 369 kts | 270° |
| 2026-04-29 09:23 | 43.25538 | -82.59041 | 32452 ft | 368 kts | 270° |
| 2026-04-29 09:23 | 43.25731 | -82.62534 | 32871 ft | 367 kts | 270° |
| 2026-04-29 09:23 | 43.25923 | -82.66013 | 33305 ft | 365 kts | 270° |
| 2026-04-29 09:23 | 43.26166 | -82.69475 | 33740 ft | 365 kts | 274° |
| 2026-04-29 09:24 | 43.26685 | -82.72898 | 34101 ft | 368 kts | 279° |
| 2026-04-29 09:24 | 43.27505 | -82.76249 | 34367 ft | 372 kts | 283° |
| 2026-04-29 09:24 | 43.28392 | -82.79595 | 34584 ft | 374 kts | 283° |
| 2026-04-29 09:24 | 43.29295 | -82.82968 | 34693 ft | 379 kts | 283° |
| 2026-04-29 09:25 | 43.30204 | -82.86364 | 34951 ft | 379 kts | 284° |
| 2026-04-29 09:25 | 43.31109 | -82.89755 | 35273 ft | 377 kts | 284° |
| 2026-04-29 09:25 | 43.32007 | -82.93140 | 35517 ft | 378 kts | 284° |
| 2026-04-29 09:25 | 43.32904 | -82.96538 | 35711 ft | 379 kts | 284° |
| 2026-04-29 09:26 | 43.33802 | -82.99952 | 35953 ft | 380 kts | 284° |
| 2026-04-29 09:26 | 43.34696 | -83.03358 | 36213 ft | 380 kts | 284° |
| 2026-04-29 09:26 | 43.35590 | -83.06775 | 36430 ft | 380 kts | 284° |
| 2026-04-29 09:26 | 43.36484 | -83.10197 | 36653 ft | 380 kts | 284° |
| 2026-04-29 09:27 | 43.37376 | -83.13617 | 36870 ft | 381 kts | 284° |
| 2026-04-29 09:27 | 43.38270 | -83.17051 | 37076 ft | 382 kts | 284° |
| 2026-04-29 09:27 | 43.39168 | -83.20510 | 37147 ft | 386 kts | 284° |
| 2026-04-29 09:27 | 43.40073 | -83.23998 | 37280 ft | 388 kts | 284° |
| 2026-04-29 09:28 | 43.40978 | -83.27489 | 37505 ft | 388 kts | 284° |
| 2026-04-29 09:28 | 43.41881 | -83.30977 | 37755 ft | 387 kts | 285° |
| 2026-04-29 09:28 | 43.42783 | -83.34465 | 37950 ft | 387 kts | 285° |
| 2026-04-29 09:29 | 43.44597 | -83.41503 | 38025 ft | 392 kts | 285° |
| 2026-04-29 09:29 | 43.47311 | -83.52058 | 38020 ft | 390 kts | 285° |
| 2026-04-29 09:30 | 43.49125 | -83.59143 | 38022 ft | 390 kts | 285° |
| 2026-04-29 09:30 | 43.50909 | -83.66132 | 38016 ft | 389 kts | 284° |
| 2026-04-29 09:31 | 43.52699 | -83.73170 | 38010 ft | 389 kts | 284° |
| 2026-04-29 09:31 | 43.54483 | -83.80203 | 38010 ft | 389 kts | 284° |
| 2026-04-29 09:32 | 43.56262 | -83.87239 | 38009 ft | 389 kts | 284° |
| 2026-04-29 09:32 | 43.58040 | -83.94293 | 38020 ft | 390 kts | 284° |
| 2026-04-29 09:33 | 43.59818 | -84.01364 | 38023 ft | 391 kts | 284° |
| 2026-04-29 09:33 | 43.61595 | -84.08457 | 38019 ft | 392 kts | 284° |
| 2026-04-29 09:34 | 43.63371 | -84.15567 | 38019 ft | 393 kts | 284° |
| 2026-04-29 09:34 | 43.65151 | -84.22714 | 38022 ft | 394 kts | 284° |
| 2026-04-29 09:35 | 43.66925 | -84.29856 | 38030 ft | 393 kts | 284° |
| 2026-04-29 09:35 | 43.68698 | -84.37019 | 38025 ft | 395 kts | 284° |
| 2026-04-29 09:36 | 43.70477 | -84.44233 | 38015 ft | 398 kts | 284° |
| 2026-04-29 09:36 | 43.72258 | -84.51468 | 38012 ft | 397 kts | 284° |
| 2026-04-29 09:37 | 43.74027 | -84.58679 | 38018 ft | 396 kts | 284° |
| 2026-04-29 09:37 | 43.75791 | -84.65896 | 38019 ft | 397 kts | 284° |
| 2026-04-29 09:38 | 43.77556 | -84.73142 | 38020 ft | 398 kts | 284° |
| 2026-04-29 09:38 | 43.79319 | -84.80400 | 38019 ft | 398 kts | 284° |
| 2026-04-29 09:39 | 43.81076 | -84.87656 | 38016 ft | 397 kts | 284° |
| 2026-04-29 09:39 | 43.82827 | -84.94910 | 38015 ft | 397 kts | 284° |
| 2026-04-29 09:40 | 43.84570 | -85.02157 | 38013 ft | 397 kts | 284° |
| 2026-04-29 09:40 | 43.86309 | -85.09409 | 38015 ft | 397 kts | 284° |
| 2026-04-29 09:41 | 43.88043 | -85.16667 | 38011 ft | 397 kts | 284° |
| 2026-04-29 09:41 | 43.89775 | -85.23935 | 38012 ft | 397 kts | 284° |
| 2026-04-29 09:42 | 43.91493 | -85.31171 | 38012 ft | 398 kts | 284° |
| 2026-04-29 09:42 | 43.93222 | -85.38474 | 38014 ft | 399 kts | 284° |
| 2026-04-29 09:43 | 43.94948 | -85.45794 | 38008 ft | 400 kts | 284° |
| 2026-04-29 09:43 | 43.96676 | -85.53141 | 37999 ft | 401 kts | 284° |
| 2026-04-29 09:44 | 43.98404 | -85.60514 | 38013 ft | 402 kts | 284° |
| 2026-04-29 09:44 | 44.00129 | -85.67900 | 38017 ft | 402 kts | 284° |
| 2026-04-29 09:45 | 44.01852 | -85.75298 | 38012 ft | 403 kts | 284° |
| 2026-04-29 09:45 | 44.03575 | -85.82723 | 38013 ft | 404 kts | 284° |
| 2026-04-29 09:46 | 44.05292 | -85.90146 | 38012 ft | 403 kts | 284° |
| 2026-04-29 09:46 | 44.07003 | -85.97571 | 38022 ft | 403 kts | 283° |
| 2026-04-29 09:47 | 44.08709 | -86.04999 | 38022 ft | 403 kts | 283° |
| 2026-04-29 09:47 | 44.10409 | -86.12427 | 38025 ft | 403 kts | 283° |
| 2026-04-29 09:48 | 44.11817 | -86.18594 | 38051 ft | 402 kts | 283° |
| 2026-04-29 09:48 | 44.13777 | -86.27214 | 38024 ft | 402 kts | 283° |
| 2026-04-29 09:49 | 44.15459 | -86.34636 | 38017 ft | 402 kts | 283° |
| 2026-04-29 09:49 | 44.16862 | -86.40850 | 38022 ft | 401 kts | 283° |
| 2026-04-29 09:50 | 44.18533 | -86.48273 | 38029 ft | 401 kts | 283° |
| 2026-04-29 09:50 | 44.20189 | -86.55650 | 38024 ft | 401 kts | 283° |
| 2026-04-29 09:51 | 44.21860 | -86.63123 | 38030 ft | 401 kts | 283° |
| 2026-04-29 09:51 | 44.23505 | -86.70507 | 38028 ft | 401 kts | 283° |
| 2026-04-29 09:52 | 44.25156 | -86.77940 | 38029 ft | 401 kts | 283° |
| 2026-04-29 09:52 | 44.26811 | -86.85423 | 38041 ft | 401 kts | 283° |
| 2026-04-29 09:53 | 44.28441 | -86.92814 | 38041 ft | 401 kts | 283° |
| 2026-04-29 09:53 | 44.30091 | -87.00323 | 38041 ft | 402 kts | 283° |
| 2026-04-29 09:54 | 44.31715 | -87.07739 | 38046 ft | 403 kts | 283° |
| 2026-04-29 09:54 | 44.33348 | -87.15225 | 38044 ft | 403 kts | 283° |
| 2026-04-29 09:55 | 44.34980 | -87.22732 | 38052 ft | 404 kts | 283° |
| 2026-04-29 09:55 | 44.36609 | -87.30250 | 38046 ft | 405 kts | 282° |
| 2026-04-29 09:56 | 44.38237 | -87.37792 | 38039 ft | 406 kts | 283° |
| 2026-04-29 09:56 | 44.39863 | -87.45353 | 38062 ft | 407 kts | 283° |
| 2026-04-29 09:57 | 44.41488 | -87.52933 | 38040 ft | 407 kts | 283° |
| 2026-04-29 09:57 | 44.43111 | -87.60535 | 38050 ft | 408 kts | 282° |
| 2026-04-29 09:58 | 44.44730 | -87.68144 | 38039 ft | 408 kts | 282° |
| 2026-04-29 09:58 | 44.46343 | -87.75756 | 38036 ft | 408 kts | 283° |
| 2026-04-29 09:59 | 44.47944 | -87.83333 | 38045 ft | 408 kts | 283° |
| 2026-04-29 09:59 | 44.49550 | -87.90968 | 38036 ft | 409 kts | 283° |
| 2026-04-29 10:00 | 44.51150 | -87.98598 | 38039 ft | 408 kts | 282° |
| 2026-04-29 10:00 | 44.52745 | -88.06240 | 38040 ft | 408 kts | 282° |
| 2026-04-29 10:01 | 44.54335 | -88.13875 | 38060 ft | 408 kts | 283° |
| 2026-04-29 10:01 | 44.56144 | -88.21424 | 38045 ft | 412 kts | 292° |
| 2026-04-29 10:02 | 44.58793 | -88.28566 | 38050 ft | 413 kts | 293° |
| 2026-04-29 10:02 | 44.61473 | -88.35689 | 38057 ft | 413 kts | 293° |
| 2026-04-29 10:03 | 44.64133 | -88.42831 | 38063 ft | 413 kts | 293° |
| 2026-04-29 10:03 | 44.66775 | -88.49986 | 38066 ft | 413 kts | 293° |
| 2026-04-29 10:04 | 44.69409 | -88.57158 | 38066 ft | 413 kts | 293° |
| 2026-04-29 10:04 | 44.72038 | -88.64337 | 38067 ft | 413 kts | 293° |
| 2026-04-29 10:05 | 44.74662 | -88.71520 | 38065 ft | 413 kts | 292° |
| 2026-04-29 10:05 | 44.77283 | -88.78713 | 38058 ft | 413 kts | 292° |
| 2026-04-29 10:06 | 44.79900 | -88.85916 | 38063 ft | 413 kts | 292° |
| 2026-04-29 10:06 | 44.82513 | -88.93126 | 38055 ft | 413 kts | 292° |
| 2026-04-29 10:07 | 44.85125 | -89.00350 | 38057 ft | 414 kts | 292° |
| 2026-04-29 10:07 | 44.87730 | -89.07577 | 38048 ft | 414 kts | 292° |
| 2026-04-29 10:08 | 44.90332 | -89.14814 | 38052 ft | 414 kts | 292° |
| 2026-04-29 10:08 | 44.92934 | -89.22069 | 38048 ft | 414 kts | 292° |
| 2026-04-29 10:09 | 44.95529 | -89.29325 | 38045 ft | 414 kts | 292° |
| 2026-04-29 10:09 | 44.98105 | -89.36547 | 38039 ft | 415 kts | 292° |
| 2026-04-29 10:10 | 45.00713 | -89.43878 | 38059 ft | 415 kts | 292° |
| 2026-04-29 10:10 | 45.03281 | -89.51116 | 38052 ft | 415 kts | 292° |
| 2026-04-29 10:11 | 45.05865 | -89.58418 | 38049 ft | 415 kts | 292° |
| 2026-04-29 10:11 | 45.08444 | -89.65725 | 38049 ft | 415 kts | 292° |
| 2026-04-29 10:12 | 45.11017 | -89.73038 | 38047 ft | 415 kts | 292° |
| 2026-04-29 10:12 | 45.13584 | -89.80352 | 38047 ft | 415 kts | 292° |
| 2026-04-29 10:13 | 45.16145 | -89.87668 | 38049 ft | 414 kts | 292° |
| 2026-04-29 10:13 | 45.18699 | -89.94987 | 38045 ft | 414 kts | 292° |
| 2026-04-29 10:14 | 45.21252 | -90.02320 | 38054 ft | 415 kts | 292° |
| 2026-04-29 10:14 | 45.23800 | -90.09659 | 38043 ft | 415 kts | 292° |
| 2026-04-29 10:15 | 45.26342 | -90.17002 | 38047 ft | 414 kts | 292° |
| 2026-04-29 10:15 | 45.28878 | -90.24348 | 38047 ft | 414 kts | 292° |
| 2026-04-29 10:16 | 45.30980 | -90.30449 | 38051 ft | 414 kts | 292° |
| 2026-04-29 10:16 | 45.33929 | -90.39037 | 38061 ft | 414 kts | 292° |
| 2026-04-29 10:17 | 45.36448 | -90.46393 | 38047 ft | 414 kts | 292° |
| 2026-04-29 10:17 | 45.38959 | -90.53746 | 38062 ft | 413 kts | 292° |
| 2026-04-29 10:18 | 45.41467 | -90.61114 | 38055 ft | 414 kts | 292° |
| 2026-04-29 10:18 | 45.43968 | -90.68478 | 38052 ft | 414 kts | 292° |
| 2026-04-29 10:19 | 45.46450 | -90.75808 | 38056 ft | 413 kts | 292° |
| 2026-04-29 10:19 | 45.48944 | -90.83193 | 38058 ft | 414 kts | 292° |
| 2026-04-29 10:20 | 45.51433 | -90.90583 | 38054 ft | 414 kts | 292° |
| 2026-04-29 10:20 | 45.53917 | -90.97982 | 38075 ft | 414 kts | 292° |
| 2026-04-29 10:21 | 45.56399 | -91.05394 | 38074 ft | 414 kts | 292° |
| 2026-04-29 10:21 | 45.58875 | -91.12807 | 38071 ft | 414 kts | 292° |
| 2026-04-29 10:22 | 45.61348 | -91.20235 | 38084 ft | 414 kts | 292° |
| 2026-04-29 10:22 | 45.63818 | -91.27674 | 38078 ft | 415 kts | 292° |
| 2026-04-29 10:23 | 45.66284 | -91.35121 | 38074 ft | 415 kts | 292° |
| 2026-04-29 10:23 | 45.68745 | -91.42576 | 38077 ft | 415 kts | 292° |
| 2026-04-29 10:24 | 45.71205 | -91.50049 | 38072 ft | 415 kts | 292° |
| 2026-04-29 10:24 | 45.73659 | -91.57525 | 38072 ft | 415 kts | 292° |
| 2026-04-29 10:25 | 45.76107 | -91.65001 | 38074 ft | 415 kts | 292° |
| 2026-04-29 10:25 | 45.78553 | -91.72495 | 38084 ft | 415 kts | 292° |
| 2026-04-29 10:26 | 45.80993 | -91.79993 | 38078 ft | 415 kts | 292° |
| 2026-04-29 10:26 | 45.83427 | -91.87495 | 38081 ft | 415 kts | 292° |
| 2026-04-29 10:27 | 45.87069 | -91.98757 | 38094 ft | 415 kts | 292° |
| 2026-04-29 10:28 | 45.89474 | -92.06221 | 38099 ft | 415 kts | 292° |
| 2026-04-29 10:28 | 45.91888 | -92.13735 | 38104 ft | 414 kts | 292° |
| 2026-04-29 10:29 | 45.94295 | -92.21250 | 38107 ft | 414 kts | 292° |
| 2026-04-29 10:29 | 45.96697 | -92.28771 | 38112 ft | 415 kts | 292° |
| 2026-04-29 10:30 | 45.99098 | -92.36310 | 38108 ft | 415 kts | 292° |
| 2026-04-29 10:30 | 46.01494 | -92.43856 | 38106 ft | 415 kts | 292° |
| 2026-04-29 10:31 | 46.03887 | -92.51417 | 38107 ft | 415 kts | 292° |
| 2026-04-29 10:31 | 46.06275 | -92.58983 | 38108 ft | 415 kts | 292° |
| 2026-04-29 10:32 | 46.08659 | -92.66558 | 38108 ft | 415 kts | 292° |
| 2026-04-29 10:32 | 46.11041 | -92.74147 | 38106 ft | 416 kts | 292° |
| 2026-04-29 10:33 | 46.13417 | -92.81743 | 38113 ft | 416 kts | 292° |
| 2026-04-29 10:33 | 46.15792 | -92.89358 | 38120 ft | 416 kts | 292° |
| 2026-04-29 10:34 | 46.18164 | -92.96985 | 38113 ft | 417 kts | 292° |
| 2026-04-29 10:34 | 46.20529 | -93.04614 | 38124 ft | 417 kts | 292° |
| 2026-04-29 10:35 | 46.22892 | -93.12256 | 38124 ft | 416 kts | 292° |
| 2026-04-29 10:35 | 46.24849 | -93.18605 | 38124 ft | 416 kts | 292° |
| 2026-04-29 10:36 | 46.27199 | -93.26250 | 38129 ft | 416 kts | 292° |
| 2026-04-29 10:36 | 46.29545 | -93.33904 | 38128 ft | 416 kts | 292° |
| 2026-04-29 10:37 | 46.31884 | -93.41560 | 38150 ft | 416 kts | 292° |
| 2026-04-29 10:37 | 46.34217 | -93.49218 | 38139 ft | 416 kts | 292° |
| 2026-04-29 10:38 | 46.36549 | -93.56898 | 38136 ft | 416 kts | 291° |
| 2026-04-29 10:38 | 46.38875 | -93.64580 | 38132 ft | 417 kts | 291° |
| 2026-04-29 10:39 | 46.41198 | -93.72276 | 38128 ft | 417 kts | 291° |
| 2026-04-29 10:39 | 46.43514 | -93.79973 | 38153 ft | 417 kts | 291° |
| 2026-04-29 10:40 | 46.45828 | -93.87686 | 38155 ft | 417 kts | 291° |
| 2026-04-29 10:40 | 46.48136 | -93.95405 | 38145 ft | 417 kts | 291° |
| 2026-04-29 10:41 | 46.50440 | -94.03134 | 38178 ft | 418 kts | 291° |
| 2026-04-29 10:41 | 46.52744 | -94.10883 | 38157 ft | 418 kts | 291° |
| 2026-04-29 10:42 | 46.55003 | -94.18673 | 38147 ft | 418 kts | 290° |
| 2026-04-29 10:42 | 46.57187 | -94.26516 | 38146 ft | 419 kts | 290° |
| 2026-04-29 10:43 | 46.59348 | -94.34317 | 38142 ft | 419 kts | 290° |
| 2026-04-29 10:43 | 46.61527 | -94.42178 | 38141 ft | 419 kts | 290° |
| 2026-04-29 10:44 | 46.63706 | -94.50043 | 38142 ft | 419 kts | 290° |
| 2026-04-29 10:44 | 46.65880 | -94.57913 | 38142 ft | 419 kts | 290° |
| 2026-04-29 10:45 | 46.68049 | -94.65787 | 38147 ft | 419 kts | 290° |
| 2026-04-29 10:45 | 46.70212 | -94.73666 | 38152 ft | 419 kts | 290° |
| 2026-04-29 10:46 | 46.72366 | -94.81537 | 38148 ft | 418 kts | 290° |
| 2026-04-29 10:46 | 46.74514 | -94.89416 | 38145 ft | 418 kts | 290° |
| 2026-04-29 10:47 | 46.76655 | -94.97292 | 38135 ft | 418 kts | 290° |
| 2026-04-29 10:47 | 46.78788 | -95.05165 | 38133 ft | 417 kts | 290° |
| 2026-04-29 10:48 | 46.80913 | -95.13036 | 38133 ft | 417 kts | 290° |
| 2026-04-29 10:48 | 46.83032 | -95.20911 | 38131 ft | 417 kts | 290° |
| 2026-04-29 10:49 | 46.85143 | -95.28783 | 38149 ft | 416 kts | 290° |
| 2026-04-29 10:49 | 46.87252 | -95.36673 | 38148 ft | 417 kts | 290° |
| 2026-04-29 10:50 | 46.89356 | -95.44570 | 38151 ft | 417 kts | 290° |
| 2026-04-29 10:50 | 46.91456 | -95.52479 | 38160 ft | 417 kts | 290° |
| 2026-04-29 10:51 | 46.93552 | -95.60399 | 38167 ft | 418 kts | 290° |
| 2026-04-29 10:51 | 46.95630 | -95.68280 | 38151 ft | 418 kts | 290° |
| 2026-04-29 10:52 | 46.97717 | -95.76219 | 38139 ft | 418 kts | 290° |
| 2026-04-29 10:52 | 46.99800 | -95.84171 | 38148 ft | 418 kts | 290° |
| 2026-04-29 10:53 | 47.01879 | -95.92136 | 38149 ft | 419 kts | 290° |
| 2026-04-29 10:53 | 47.03953 | -96.00110 | 38159 ft | 419 kts | 290° |
| 2026-04-29 10:54 | 47.06025 | -96.08100 | 38164 ft | 419 kts | 290° |
| 2026-04-29 10:54 | 47.08092 | -96.16104 | 38174 ft | 420 kts | 290° |
| 2026-04-29 10:55 | 47.10154 | -96.24113 | 38178 ft | 419 kts | 290° |
| 2026-04-29 10:55 | 47.12208 | -96.32118 | 38178 ft | 419 kts | 290° |
| 2026-04-29 10:56 | 47.14258 | -96.40137 | 38180 ft | 419 kts | 290° |
| 2026-04-29 10:56 | 47.16301 | -96.48155 | 38181 ft | 419 kts | 290° |
| 2026-04-29 10:57 | 47.18335 | -96.56167 | 38181 ft | 419 kts | 290° |
| 2026-04-29 10:57 | 47.20364 | -96.64187 | 38196 ft | 418 kts | 290° |
| 2026-04-29 10:58 | 47.22387 | -96.72211 | 38184 ft | 418 kts | 290° |
| 2026-04-29 10:58 | 47.24404 | -96.80240 | 38179 ft | 418 kts | 290° |
| 2026-04-29 10:59 | 47.26412 | -96.88265 | 38180 ft | 418 kts | 290° |
| 2026-04-29 10:59 | 47.28415 | -96.96297 | 38180 ft | 418 kts | 290° |
| 2026-04-29 11:00 | 47.30412 | -97.04331 | 38176 ft | 418 kts | 290° |
| 2026-04-29 11:00 | 47.32401 | -97.12363 | 38180 ft | 417 kts | 290° |
| 2026-04-29 11:01 | 47.34383 | -97.20394 | 38181 ft | 416 kts | 290° |
| 2026-04-29 11:01 | 47.36357 | -97.28422 | 38193 ft | 416 kts | 290° |
| 2026-04-29 11:02 | 47.38312 | -97.36403 | 38179 ft | 417 kts | 289° |
| 2026-04-29 11:02 | 47.40288 | -97.44494 | 38180 ft | 417 kts | 289° |
| 2026-04-29 11:03 | 47.42247 | -97.52549 | 38181 ft | 417 kts | 289° |
| 2026-04-29 11:03 | 47.44186 | -97.60550 | 38181 ft | 417 kts | 289° |
| 2026-04-29 11:04 | 47.46133 | -97.68613 | 38183 ft | 417 kts | 289° |
| 2026-04-29 11:04 | 47.48073 | -97.76674 | 38182 ft | 416 kts | 289° |
| 2026-04-29 11:05 | 47.50008 | -97.84747 | 38180 ft | 416 kts | 289° |
| 2026-04-29 11:05 | 47.51935 | -97.92817 | 38187 ft | 416 kts | 289° |
| 2026-04-29 11:06 | 47.53859 | -98.00899 | 38189 ft | 417 kts | 289° |
| 2026-04-29 11:06 | 47.55772 | -98.08970 | 38185 ft | 417 kts | 289° |
| 2026-04-29 11:07 | 47.57688 | -98.17081 | 38186 ft | 417 kts | 289° |
| 2026-04-29 11:07 | 47.59598 | -98.25195 | 38189 ft | 417 kts | 289° |
| 2026-04-29 11:08 | 47.61504 | -98.33323 | 38194 ft | 418 kts | 289° |
| 2026-04-29 11:08 | 47.63404 | -98.41460 | 38183 ft | 418 kts | 289° |
| 2026-04-29 11:09 | 47.65299 | -98.49604 | 38195 ft | 418 kts | 289° |
| 2026-04-29 11:09 | 47.67187 | -98.57748 | 38196 ft | 418 kts | 289° |
| 2026-04-29 11:10 | 47.69070 | -98.65900 | 38208 ft | 417 kts | 289° |
| 2026-04-29 11:10 | 47.70948 | -98.74063 | 38194 ft | 418 kts | 289° |
| 2026-04-29 11:11 | 47.72821 | -98.82231 | 38204 ft | 418 kts | 289° |
| 2026-04-29 11:11 | 47.74687 | -98.90404 | 38202 ft | 418 kts | 289° |
| 2026-04-29 11:12 | 47.76535 | -98.98531 | 38203 ft | 418 kts | 289° |
| 2026-04-29 11:12 | 47.78390 | -99.06714 | 38207 ft | 418 kts | 289° |
| 2026-04-29 11:13 | 47.80238 | -99.14903 | 38214 ft | 418 kts | 289° |
| 2026-04-29 11:13 | 47.82080 | -99.23095 | 38214 ft | 418 kts | 289° |
| 2026-04-29 11:14 | 47.83920 | -99.31308 | 38207 ft | 418 kts | 289° |
| 2026-04-29 11:14 | 47.85748 | -99.39504 | 38208 ft | 417 kts | 289° |
| 2026-04-29 11:15 | 47.87573 | -99.47715 | 38211 ft | 417 kts | 289° |
| 2026-04-29 11:15 | 47.89390 | -99.55921 | 38206 ft | 417 kts | 289° |
| 2026-04-29 11:16 | 47.91201 | -99.64135 | 38205 ft | 417 kts | 289° |
| 2026-04-29 11:16 | 47.93005 | -99.72350 | 38200 ft | 417 kts | 289° |
| 2026-04-29 11:17 | 47.94804 | -99.80572 | 38188 ft | 417 kts | 289° |
| 2026-04-29 11:17 | 47.96594 | -99.88788 | 38195 ft | 416 kts | 289° |
| 2026-04-29 11:18 | 47.98377 | -99.97003 | 38196 ft | 416 kts | 289° |
| 2026-04-29 11:18 | 48.00154 | -100.05220 | 38201 ft | 416 kts | 289° |
| 2026-04-29 11:19 | 48.01923 | -100.13438 | 38194 ft | 416 kts | 289° |
| 2026-04-29 11:19 | 48.03686 | -100.21660 | 38200 ft | 415 kts | 289° |
| 2026-04-29 11:20 | 48.05442 | -100.29881 | 38191 ft | 415 kts | 289° |
| 2026-04-29 11:20 | 48.07179 | -100.38045 | 38190 ft | 415 kts | 289° |
| 2026-04-29 11:21 | 48.08931 | -100.46315 | 38199 ft | 414 kts | 288° |
| 2026-04-29 11:21 | 48.10653 | -100.54472 | 38198 ft | 414 kts | 288° |
| 2026-04-29 11:22 | 48.12380 | -100.62692 | 38201 ft | 414 kts | 288° |
| 2026-04-29 11:22 | 48.14100 | -100.70909 | 38193 ft | 413 kts | 288° |
| 2026-04-29 11:23 | 48.15813 | -100.79123 | 38198 ft | 413 kts | 288° |
| 2026-04-29 11:23 | 48.17231 | -100.85949 | 38202 ft | 413 kts | 288° |
| 2026-04-29 11:24 | 48.18934 | -100.94179 | 38201 ft | 413 kts | 288° |
| 2026-04-29 11:24 | 48.20630 | -101.02410 | 38193 ft | 413 kts | 288° |
| 2026-04-29 11:25 | 48.22320 | -101.10646 | 38198 ft | 414 kts | 288° |
| 2026-04-29 11:25 | 48.24007 | -101.18900 | 38200 ft | 414 kts | 288° |
| 2026-04-29 11:26 | 48.26513 | -101.31299 | 38154 ft | 414 kts | 287° |
| 2026-04-29 11:26 | 48.28050 | -101.39623 | 38158 ft | 414 kts | 287° |
| 2026-04-29 11:27 | 48.29551 | -101.47968 | 38161 ft | 414 kts | 287° |
| 2026-04-29 11:27 | 48.31056 | -101.56315 | 38150 ft | 414 kts | 287° |
| 2026-04-29 11:28 | 48.32562 | -101.64659 | 38160 ft | 414 kts | 287° |
| 2026-04-29 11:28 | 48.34067 | -101.73008 | 38165 ft | 413 kts | 287° |
| 2026-04-29 11:29 | 48.35552 | -101.81285 | 38179 ft | 413 kts | 287° |
| 2026-04-29 11:29 | 48.37042 | -101.89623 | 38195 ft | 413 kts | 287° |
| 2026-04-29 11:30 | 48.38525 | -101.97964 | 38188 ft | 413 kts | 286° |
| 2026-04-29 11:30 | 48.40002 | -102.06307 | 38185 ft | 413 kts | 286° |
| 2026-04-29 11:31 | 48.41472 | -102.14653 | 38159 ft | 413 kts | 286° |
| 2026-04-29 11:31 | 48.42936 | -102.23005 | 38174 ft | 412 kts | 286° |
| 2026-04-29 11:32 | 48.44394 | -102.31360 | 38181 ft | 412 kts | 286° |
| 2026-04-29 11:32 | 48.45846 | -102.39716 | 38181 ft | 412 kts | 286° |
| 2026-04-29 11:33 | 48.47291 | -102.48076 | 38185 ft | 413 kts | 286° |
| 2026-04-29 11:33 | 48.48731 | -102.56448 | 38199 ft | 413 kts | 286° |
| 2026-04-29 11:34 | 48.50167 | -102.64833 | 38196 ft | 413 kts | 286° |
| 2026-04-29 11:34 | 48.51595 | -102.73217 | 38200 ft | 413 kts | 286° |
| 2026-04-29 11:35 | 48.53018 | -102.81607 | 38195 ft | 413 kts | 286° |
| 2026-04-29 11:35 | 48.54436 | -102.90012 | 38211 ft | 413 kts | 286° |
| 2026-04-29 11:36 | 48.55847 | -102.98415 | 38208 ft | 413 kts | 286° |
| 2026-04-29 11:36 | 48.57254 | -103.06836 | 38217 ft | 414 kts | 285° |
| 2026-04-29 11:37 | 48.58656 | -103.15265 | 38204 ft | 414 kts | 285° |
| 2026-04-29 11:37 | 48.60051 | -103.23694 | 38223 ft | 414 kts | 285° |
| 2026-04-29 11:38 | 48.61431 | -103.32075 | 38226 ft | 414 kts | 285° |
| 2026-04-29 11:38 | 48.62813 | -103.40514 | 38222 ft | 414 kts | 285° |
| 2026-04-29 11:39 | 48.64191 | -103.48971 | 38232 ft | 414 kts | 285° |
| 2026-04-29 11:39 | 48.65562 | -103.57424 | 38236 ft | 414 kts | 285° |
| 2026-04-29 11:40 | 48.66928 | -103.65890 | 38234 ft | 414 kts | 285° |
| 2026-04-29 11:40 | 48.68287 | -103.74354 | 38230 ft | 414 kts | 285° |
| 2026-04-29 11:41 | 48.69640 | -103.82824 | 38252 ft | 414 kts | 285° |
| 2026-04-29 11:41 | 48.70989 | -103.91312 | 38234 ft | 415 kts | 285° |
| 2026-04-29 11:42 | 48.72332 | -103.99805 | 38227 ft | 415 kts | 285° |
| 2026-04-29 11:42 | 48.73669 | -104.08308 | 38201 ft | 415 kts | 285° |
| 2026-04-29 11:43 | 48.74999 | -104.16811 | 38206 ft | 415 kts | 285° |
| 2026-04-29 11:43 | 48.76324 | -104.25327 | 38191 ft | 415 kts | 285° |
| 2026-04-29 11:44 | 48.77642 | -104.33837 | 38177 ft | 415 kts | 285° |
| 2026-04-29 11:44 | 48.78954 | -104.42361 | 38170 ft | 415 kts | 285° |
| 2026-04-29 11:45 | 48.80261 | -104.50890 | 38167 ft | 415 kts | 285° |
| 2026-04-29 11:45 | 48.81562 | -104.59430 | 38151 ft | 415 kts | 284° |
| 2026-04-29 11:46 | 48.82856 | -104.67968 | 38169 ft | 415 kts | 284° |
| 2026-04-29 11:46 | 48.84145 | -104.76520 | 38191 ft | 415 kts | 284° |
| 2026-04-29 11:47 | 48.85419 | -104.85016 | 38205 ft | 416 kts | 284° |
| 2026-04-29 11:47 | 48.86696 | -104.93585 | 38228 ft | 416 kts | 284° |
| 2026-04-29 11:48 | 48.87967 | -105.02159 | 38250 ft | 416 kts | 284° |
| 2026-04-29 11:48 | 48.89231 | -105.10730 | 38250 ft | 416 kts | 284° |
| 2026-04-29 11:49 | 48.90488 | -105.19304 | 38258 ft | 416 kts | 284° |
| 2026-04-29 11:49 | 48.91739 | -105.27877 | 38255 ft | 416 kts | 284° |
| 2026-04-29 11:50 | 48.92984 | -105.36466 | 38257 ft | 416 kts | 284° |
| 2026-04-29 11:50 | 48.94223 | -105.45056 | 38263 ft | 416 kts | 284° |
| 2026-04-29 11:51 | 48.95456 | -105.53654 | 38265 ft | 416 kts | 284° |
| 2026-04-29 11:51 | 48.96683 | -105.62259 | 38263 ft | 416 kts | 284° |
| 2026-04-29 11:52 | 48.97903 | -105.70865 | 38264 ft | 416 kts | 284° |
| 2026-04-29 11:52 | 48.99116 | -105.79472 | 38275 ft | 416 kts | 284° |
| 2026-04-29 11:53 | 49.00322 | -105.88080 | 38275 ft | 416 kts | 284° |
| 2026-04-29 11:53 | 49.01523 | -105.96700 | 38273 ft | 416 kts | 284° |
| 2026-04-29 11:54 | 49.02718 | -106.05330 | 38256 ft | 416 kts | 284° |
| 2026-04-29 11:54 | 49.03906 | -106.13953 | 38264 ft | 416 kts | 284° |
| 2026-04-29 11:55 | 49.05087 | -106.22583 | 38269 ft | 416 kts | 284° |
| 2026-04-29 11:55 | 49.06261 | -106.31208 | 38270 ft | 416 kts | 284° |
| 2026-04-29 11:56 | 49.07428 | -106.39840 | 38276 ft | 416 kts | 284° |
| 2026-04-29 11:56 | 49.08589 | -106.48474 | 38274 ft | 416 kts | 284° |
| 2026-04-29 11:57 | 49.09744 | -106.57113 | 38270 ft | 415 kts | 284° |
| 2026-04-29 11:57 | 49.10891 | -106.65747 | 38279 ft | 415 kts | 283° |
| 2026-04-29 11:58 | 49.12031 | -106.74382 | 38280 ft | 415 kts | 283° |
| 2026-04-29 11:58 | 49.13158 | -106.82971 | 38285 ft | 415 kts | 283° |
| 2026-04-29 11:59 | 49.14286 | -106.91619 | 38284 ft | 415 kts | 283° |
| 2026-04-29 11:59 | 49.15408 | -107.00273 | 38289 ft | 415 kts | 283° |
| 2026-04-29 12:00 | 49.16529 | -107.08982 | 38304 ft | 415 kts | 283° |
| 2026-04-29 12:00 | 49.17630 | -107.17577 | 38291 ft | 415 kts | 283° |
| 2026-04-29 12:01 | 49.18733 | -107.26250 | 38297 ft | 416 kts | 283° |
| 2026-04-29 12:01 | 49.19829 | -107.34924 | 38320 ft | 416 kts | 283° |
| 2026-04-29 12:02 | 49.20920 | -107.43603 | 38317 ft | 416 kts | 283° |
| 2026-04-29 12:02 | 49.22004 | -107.52293 | 38315 ft | 416 kts | 283° |
| 2026-04-29 12:03 | 49.23083 | -107.60992 | 38312 ft | 416 kts | 283° |
| 2026-04-29 12:03 | 49.24154 | -107.69690 | 38328 ft | 416 kts | 283° |
| 2026-04-29 12:04 | 49.25220 | -107.78399 | 38323 ft | 416 kts | 283° |
| 2026-04-29 12:04 | 49.26279 | -107.87112 | 38321 ft | 416 kts | 283° |
| 2026-04-29 12:05 | 49.27332 | -107.95834 | 38321 ft | 417 kts | 283° |
| 2026-04-29 12:05 | 49.28379 | -108.04559 | 38323 ft | 417 kts | 283° |
| 2026-04-29 12:06 | 49.29419 | -108.13285 | 38331 ft | 416 kts | 283° |
| 2026-04-29 12:06 | 49.30453 | -108.22019 | 38333 ft | 416 kts | 283° |
| 2026-04-29 12:07 | 49.31480 | -108.30754 | 38329 ft | 417 kts | 283° |
| 2026-04-29 12:07 | 49.32501 | -108.39501 | 38334 ft | 417 kts | 282° |
| 2026-04-29 12:08 | 49.33516 | -108.48257 | 38330 ft | 417 kts | 282° |
| 2026-04-29 12:08 | 49.34519 | -108.56966 | 38307 ft | 417 kts | 282° |
| 2026-04-29 12:09 | 49.35527 | -108.65781 | 38326 ft | 417 kts | 282° |
| 2026-04-29 12:09 | 49.36515 | -108.74488 | 38333 ft | 417 kts | 282° |
| 2026-04-29 12:10 | 49.37345 | -108.81840 | 38332 ft | 417 kts | 282° |
| 2026-04-29 12:10 | 49.38488 | -108.92041 | 38324 ft | 418 kts | 282° |
| 2026-04-29 12:11 | 49.39307 | -108.99407 | 38318 ft | 418 kts | 282° |
| 2026-04-29 12:11 | 49.40273 | -109.08150 | 38289 ft | 418 kts | 282° |
| 2026-04-29 12:12 | 49.41238 | -109.16950 | 38306 ft | 418 kts | 282° |
| 2026-04-29 12:12 | 49.42196 | -109.25750 | 38309 ft | 418 kts | 282° |
| 2026-04-29 12:13 | 49.43148 | -109.34561 | 38298 ft | 418 kts | 282° |
| 2026-04-29 12:13 | 49.44094 | -109.43382 | 38298 ft | 418 kts | 282° |
| 2026-04-29 12:14 | 49.45033 | -109.52201 | 38298 ft | 418 kts | 282° |
| 2026-04-29 12:14 | 49.45965 | -109.61019 | 38285 ft | 418 kts | 282° |
| 2026-04-29 12:15 | 49.46890 | -109.69842 | 38293 ft | 418 kts | 282° |
| 2026-04-29 12:15 | 49.47808 | -109.78659 | 38297 ft | 418 kts | 282° |
| 2026-04-29 12:16 | 49.48719 | -109.87476 | 38297 ft | 417 kts | 282° |
| 2026-04-29 12:16 | 49.49639 | -109.96284 | 38290 ft | 416 kts | 285° |
| 2026-04-29 12:17 | 49.51596 | -110.04568 | 38291 ft | 410 kts | 301° |
| 2026-04-29 12:17 | 49.54433 | -110.12181 | 38274 ft | 410 kts | 302° |
| 2026-04-29 12:18 | 49.57297 | -110.19777 | 38290 ft | 410 kts | 302° |
| 2026-04-29 12:18 | 49.60131 | -110.27397 | 38295 ft | 410 kts | 301° |
| 2026-04-29 12:19 | 49.62948 | -110.35043 | 38294 ft | 410 kts | 301° |
| 2026-04-29 12:19 | 49.65756 | -110.42707 | 38289 ft | 411 kts | 301° |
| 2026-04-29 12:20 | 49.68563 | -110.50391 | 38291 ft | 411 kts | 301° |
| 2026-04-29 12:20 | 49.71366 | -110.58085 | 38294 ft | 411 kts | 301° |
| 2026-04-29 12:21 | 49.74165 | -110.65791 | 38303 ft | 411 kts | 301° |
| 2026-04-29 12:21 | 49.76960 | -110.73508 | 38312 ft | 411 kts | 301° |
| 2026-04-29 12:22 | 49.79751 | -110.81238 | 38300 ft | 411 kts | 301° |
| 2026-04-29 12:22 | 49.82513 | -110.88911 | 38314 ft | 410 kts | 301° |
| 2026-04-29 12:23 | 49.85284 | -110.96632 | 38328 ft | 410 kts | 301° |
| 2026-04-29 12:23 | 49.88046 | -111.04351 | 38329 ft | 409 kts | 301° |
| 2026-04-29 12:24 | 49.90802 | -111.12078 | 38330 ft | 409 kts | 301° |
| 2026-04-29 12:24 | 49.93550 | -111.19802 | 38316 ft | 409 kts | 301° |
| 2026-04-29 12:25 | 49.96294 | -111.27537 | 38331 ft | 409 kts | 301° |
| 2026-04-29 12:26 | 50.00442 | -111.39125 | 38335 ft | 409 kts | 302° |
| 2026-04-29 12:26 | 50.03254 | -111.46842 | 37929 ft | 414 kts | 302° |
| 2026-04-29 12:26 | 50.04665 | -111.50728 | 37454 ft | 411 kts | 302° |
| 2026-04-29 12:27 | 50.06067 | -111.54597 | 36926 ft | 409 kts | 302° |
| 2026-04-29 12:27 | 50.07455 | -111.58440 | 36464 ft | 405 kts | 302° |
| 2026-04-29 12:27 | 50.08827 | -111.62248 | 36040 ft | 401 kts | 302° |
| 2026-04-29 12:27 | 50.10183 | -111.66019 | 35608 ft | 397 kts | 302° |
| 2026-04-29 12:28 | 50.11526 | -111.69759 | 35182 ft | 394 kts | 302° |
| 2026-04-29 12:28 | 50.12857 | -111.73470 | 34770 ft | 391 kts | 302° |
| 2026-04-29 12:28 | 50.14159 | -111.77104 | 34340 ft | 388 kts | 302° |
| 2026-04-29 12:28 | 50.15468 | -111.80765 | 33859 ft | 385 kts | 302° |
| 2026-04-29 12:29 | 50.16766 | -111.84398 | 33404 ft | 382 kts | 302° |
| 2026-04-29 12:29 | 50.18051 | -111.88001 | 32974 ft | 378 kts | 302° |
| 2026-04-29 12:29 | 50.19323 | -111.91576 | 32563 ft | 375 kts | 302° |
| 2026-04-29 12:29 | 50.20585 | -111.95123 | 32153 ft | 372 kts | 302° |
| 2026-04-29 12:30 | 50.21833 | -111.98639 | 31755 ft | 369 kts | 303° |
| 2026-04-29 12:30 | 50.23070 | -112.02124 | 31348 ft | 366 kts | 303° |
| 2026-04-29 12:30 | 50.24299 | -112.05595 | 30966 ft | 363 kts | 303° |
| 2026-04-29 12:30 | 50.25516 | -112.09036 | 30591 ft | 361 kts | 303° |
| 2026-04-29 12:31 | 50.26728 | -112.12465 | 30173 ft | 359 kts | 303° |
| 2026-04-29 12:31 | 50.27928 | -112.15866 | 29705 ft | 356 kts | 303° |
| 2026-04-29 12:31 | 50.29114 | -112.19233 | 29320 ft | 351 kts | 303° |
| 2026-04-29 12:31 | 50.30283 | -112.22559 | 28903 ft | 347 kts | 303° |
| 2026-04-29 12:32 | 50.31440 | -112.25853 | 28495 ft | 344 kts | 303° |
| 2026-04-29 12:32 | 50.32583 | -112.29109 | 28107 ft | 340 kts | 303° |
| 2026-04-29 12:32 | 50.33717 | -112.32343 | 27689 ft | 337 kts | 303° |
| 2026-04-29 12:32 | 50.34838 | -112.35545 | 27290 ft | 334 kts | 303° |
| 2026-04-29 12:33 | 50.35949 | -112.38723 | 26899 ft | 331 kts | 303° |
| 2026-04-29 12:33 | 50.37050 | -112.41877 | 26509 ft | 329 kts | 303° |
| 2026-04-29 12:33 | 50.38143 | -112.45011 | 26125 ft | 326 kts | 303° |
| 2026-04-29 12:33 | 50.39225 | -112.48116 | 25740 ft | 324 kts | 303° |
| 2026-04-29 12:34 | 50.40300 | -112.51205 | 25349 ft | 322 kts | 304° |
| 2026-04-29 12:34 | 50.41365 | -112.54271 | 24973 ft | 320 kts | 304° |
| 2026-04-29 12:34 | 50.42425 | -112.57322 | 24590 ft | 318 kts | 304° |
| 2026-04-29 12:34 | 50.43478 | -112.60360 | 24216 ft | 316 kts | 304° |
| 2026-04-29 12:35 | 50.44525 | -112.63383 | 23826 ft | 315 kts | 304° |
| 2026-04-29 12:35 | 50.45567 | -112.66396 | 23359 ft | 314 kts | 303° |
| 2026-04-29 12:35 | 50.46604 | -112.69397 | 22914 ft | 312 kts | 303° |
| 2026-04-29 12:35 | 50.47634 | -112.72382 | 22445 ft | 311 kts | 303° |
| 2026-04-29 12:36 | 50.48664 | -112.75370 | 22008 ft | 310 kts | 303° |
| 2026-04-29 12:36 | 50.49689 | -112.78344 | 21557 ft | 309 kts | 303° |
| 2026-04-29 12:36 | 50.50701 | -112.81291 | 21211 ft | 306 kts | 303° |
| 2026-04-29 12:36 | 50.51706 | -112.84220 | 20814 ft | 303 kts | 303° |
| 2026-04-29 12:37 | 50.52704 | -112.87129 | 20422 ft | 301 kts | 303° |
| 2026-04-29 12:37 | 50.53694 | -112.90019 | 20056 ft | 299 kts | 303° |
| 2026-04-29 12:37 | 50.54675 | -112.92884 | 19683 ft | 297 kts | 303° |
| 2026-04-29 12:37 | 50.55651 | -112.95740 | 19310 ft | 296 kts | 303° |
| 2026-04-29 12:38 | 50.56621 | -112.98580 | 18947 ft | 294 kts | 303° |
| 2026-04-29 12:38 | 50.57586 | -113.01408 | 18566 ft | 293 kts | 303° |
| 2026-04-29 12:38 | 50.58546 | -113.04227 | 18150 ft | 292 kts | 302° |
| 2026-04-29 12:38 | 50.59501 | -113.07032 | 17750 ft | 290 kts | 302° |
| 2026-04-29 12:39 | 50.60447 | -113.09815 | 17377 ft | 287 kts | 302° |
| 2026-04-29 12:39 | 50.61383 | -113.12575 | 17006 ft | 285 kts | 302° |
| 2026-04-29 12:39 | 50.62313 | -113.15316 | 16641 ft | 283 kts | 302° |
| 2026-04-29 12:39 | 50.63235 | -113.18035 | 16274 ft | 281 kts | 302° |
| 2026-04-29 12:40 | 50.64152 | -113.20747 | 15905 ft | 279 kts | 302° |
| 2026-04-29 12:40 | 50.65060 | -113.23432 | 15549 ft | 277 kts | 302° |
| 2026-04-29 12:40 | 50.65963 | -113.26102 | 15177 ft | 275 kts | 302° |
| 2026-04-29 12:40 | 50.66847 | -113.28720 | 14825 ft | 274 kts | 302° |
| 2026-04-29 12:41 | 50.67739 | -113.31368 | 14464 ft | 272 kts | 302° |
| 2026-04-29 12:41 | 50.68613 | -113.33967 | 14310 ft | 263 kts | 302° |
| 2026-04-29 12:41 | 50.69462 | -113.36471 | 14167 ft | 253 kts | 304° |
| 2026-04-29 12:41 | 50.70588 | -113.38513 | 13931 ft | 245 kts | 322° |
| 2026-04-29 12:42 | 50.71899 | -113.40278 | 13733 ft | 251 kts | 322° |
| 2026-04-29 12:42 | 50.73250 | -113.42084 | 13515 ft | 257 kts | 322° |
| 2026-04-29 12:42 | 50.74622 | -113.43924 | 13285 ft | 260 kts | 322° |
| 2026-04-29 12:42 | 50.75996 | -113.45777 | 13052 ft | 258 kts | 322° |
| 2026-04-29 12:43 | 50.77347 | -113.47607 | 12821 ft | 254 kts | 322° |
| 2026-04-29 12:43 | 50.78673 | -113.49408 | 12594 ft | 250 kts | 322° |
| 2026-04-29 12:43 | 50.79987 | -113.51195 | 12375 ft | 249 kts | 322° |
| 2026-04-29 12:43 | 50.81298 | -113.52982 | 12166 ft | 249 kts | 321° |
| 2026-04-29 12:44 | 50.82606 | -113.54766 | 11955 ft | 248 kts | 321° |
| 2026-04-29 12:44 | 50.83909 | -113.56547 | 11741 ft | 247 kts | 322° |
| 2026-04-29 12:44 | 50.85208 | -113.58323 | 11531 ft | 247 kts | 322° |
| 2026-04-29 12:44 | 50.86506 | -113.60099 | 11308 ft | 246 kts | 322° |
| 2026-04-29 12:45 | 50.87800 | -113.61871 | 11094 ft | 246 kts | 322° |
| 2026-04-29 12:45 | 50.89091 | -113.63641 | 10872 ft | 245 kts | 321° |
| 2026-04-29 12:45 | 50.90378 | -113.65407 | 10648 ft | 245 kts | 321° |
| 2026-04-29 12:45 | 50.91656 | -113.67177 | 10432 ft | 242 kts | 318° |
| 2026-04-29 12:46 | 50.92551 | -113.69412 | 10191 ft | 243 kts | 294° |
| 2026-04-29 12:46 | 50.92877 | -113.72032 | 9939 ft | 244 kts | 277° |
| 2026-04-29 12:46 | 50.92884 | -113.74699 | 9726 ft | 241 kts | 274° |
| 2026-04-29 12:46 | 50.92855 | -113.77352 | 9458 ft | 241 kts | 274° |
| 2026-04-29 12:47 | 50.92821 | -113.80021 | 9193 ft | 243 kts | 270° |
| 2026-04-29 12:47 | 50.92294 | -113.82582 | 8898 ft | 251 kts | 239° |
| 2026-04-29 12:47 | 50.90984 | -113.84414 | 8641 ft | 257 kts | 207° |
| 2026-04-29 12:47 | 50.89249 | -113.85028 | 8408 ft | 256 kts | 185° |
| 2026-04-29 12:48 | 50.87474 | -113.85070 | 8169 ft | 254 kts | 181° |
| 2026-04-29 12:48 | 50.85739 | -113.85035 | 7919 ft | 251 kts | 184° |
| 2026-04-29 12:48 | 50.84099 | -113.85755 | 7644 ft | 243 kts | 216° |
| 2026-04-29 12:48 | 50.82985 | -113.87625 | 7402 ft | 230 kts | 249° |
| 2026-04-29 12:49 | 50.82701 | -113.90006 | 7148 ft | 218 kts | 282° |
| 2026-04-29 12:49 | 50.83275 | -113.92146 | 6931 ft | 211 kts | 308° |
| 2026-04-29 12:49 | 50.84184 | -113.93980 | 6712 ft | 213 kts | 311° |
| 2026-04-29 12:49 | 50.85122 | -113.95774 | 6654 ft | 211 kts | 311° |
| 2026-04-29 12:50 | 50.86071 | -113.97573 | 6612 ft | 214 kts | 311° |
| 2026-04-29 12:50 | 50.87034 | -113.99392 | 6598 ft | 217 kts | 311° |
| 2026-04-29 12:50 | 50.88037 | -114.01172 | 6579 ft | 217 kts | 321° |
| 2026-04-29 12:50 | 50.89418 | -114.01981 | 6590 ft | 215 kts | 354° |
| 2026-04-29 12:51 | 50.90917 | -114.02086 | 6565 ft | 212 kts | 356° |
| 2026-04-29 12:51 | 50.92347 | -114.02126 | 6385 ft | 199 kts | 358° |
| 2026-04-29 12:51 | 50.93688 | -114.02134 | 6172 ft | 188 kts | 358° |
| 2026-04-29 12:51 | 50.94981 | -114.02134 | 6078 ft | 186 kts | 358° |
| 2026-04-29 12:52 | 50.96275 | -114.02134 | 6048 ft | 185 kts | 358° |
| 2026-04-29 12:52 | 50.97564 | -114.02134 | 6004 ft | 187 kts | 358° |
| 2026-04-29 12:52 | 50.98876 | -114.02135 | 5786 ft | 190 kts | 358° |
| 2026-04-29 12:52 | 51.00201 | -114.02134 | 5515 ft | 190 kts | 358° |
| 2026-04-29 12:53 | 51.01486 | -114.02133 | 5299 ft | 174 kts | 358° |
| 2026-04-29 12:53 | 51.02642 | -114.02133 | 5035 ft | 157 kts | 358° |
| 2026-04-29 12:53 | 51.03675 | -114.02133 | 4808 ft | 142 kts | 358° |
| 2026-04-29 12:53 | 51.04643 | -114.02134 | 4642 ft | 139 kts | 358° |
| 2026-04-29 12:54 | 51.05616 | -114.02134 | 4433 ft | 140 kts | 358° |
| 2026-04-29 12:54 | 51.06595 | -114.02134 | 4209 ft | 141 kts | 359° |
| 2026-04-29 12:54 | 51.07577 | -114.02137 | 4005 ft | 141 kts | 359° |
| 2026-04-29 12:54 | 51.08562 | -114.02140 | 3811 ft | 142 kts | 359° |
| 2026-04-29 12:55 | 51.09549 | -114.02133 | 3631 ft | 140 kts | 360° |
| 2026-04-29 12:55 | 51.10485 | -114.02140 | 3556 ft | 121 kts | 360° |
| 2026-04-29 12:55 | 51.11116 | -114.02139 | 3560 ft | 60 kts | 0° |
| 2026-04-29 12:55 | 51.11486 | -114.02132 | 3556 ft | 41 kts | 6° |
| 2026-04-29 12:56 | 51.11707 | -114.01979 | 3554 ft | 27 kts | 30° |
| 2026-04-29 12:56 | 51.11767 | -114.01859 | 3558 ft | 17 kts | 69° |
| 2026-04-29 12:56 | 51.11868 | -114.01800 | 3558 ft | 17 kts | 358° |
| 2026-04-29 12:56 | 51.11984 | -114.01798 | 3557 ft | 17 kts | 360° |
| 2026-04-29 12:57 | 51.12191 | -114.01797 | 3557 ft | 25 kts | 0° |
| 2026-04-29 12:57 | 51.12312 | -114.01796 | 3558 ft | 27 kts | 0° |
| 2026-04-29 12:57 | 51.12499 | -114.01793 | 3558 ft | 22 kts | 1° |
| 2026-04-29 12:57 | 51.12648 | -114.01794 | 3558 ft | 23 kts | 359° |
| 2026-04-29 12:58 | 51.12818 | -114.01796 | 3555 ft | 26 kts | 360° |
| 2026-04-29 12:58 | 51.12892 | -114.01701 | 3558 ft | 16 kts | 90° |
| 2026-04-29 12:58 | 51.12892 | -114.01505 | 3558 ft | 20 kts | 90° |
| 2026-04-29 12:58 | 51.12845 | -114.01424 | 3558 ft | 13 kts | 138° |
| 2026-04-29 12:59 | 51.12785 | -114.01309 | 3556 ft | 13 kts | 126° |
| 2026-04-29 12:59 | 51.12802 | -114.01180 | 3556 ft | 13 kts | 54° |
| 2026-04-29 12:59 | 51.12794 | -114.01050 | 3558 ft | 14 kts | 128° |
| 2026-04-29 12:59 | 51.12749 | -114.00890 | 3558 ft | 17 kts | 96° |
| 2026-04-29 13:00 | 51.12741 | -114.00700 | 3556 ft | 17 kts | 81° |
| 2026-04-29 13:00 | 51.12810 | -114.00644 | 3557 ft | 8 kts | 359° |
| 2026-04-29 13:00 | 51.12864 | -114.00644 | 3556 ft | 8 kts | 0° |
| 2026-04-29 13:00 | 51.12903 | -114.00598 | 3556 ft | 8 kts | 51° |
| 2026-04-29 13:01 | 51.12929 | -114.00541 | 3557 ft | 3 kts | 54° |
| 2026-04-29 13:01 | 51.12933 | -114.00531 | 3557 ft | 1 kts | 54° |
| 2026-04-29 13:01 | 51.12935 | -114.00527 | 3558 ft | 0 kts | 54° |